Accueil
METAR-TAF:

METAR-TAF

Aéroports :

Gloucester, Angleterre

Aéroport de Gloucestershire

latitude: 51-54N, longitude: 002-10W, altitude: 29 m

Observation

Le bulletin a été fait il y a 11 heures et 40 minutes, à 18:50 UTC
Vent calme
Température -2°C
Humidité 93%
Pression 994 hPa
Visibilité 10 km ou plus
pas de nuages en-dessous de 1500 mètres et pas de cumulonimbus.

METAR: EGBJ 111850Z 00000KT CAVOK M02/M03 Q0994

Heure: 06:30 (06:30 UTC)

Prévision

Le bulletin a été fait il y a 13 heures et 29 minutes, à 17:01 UTC
Prévision valable du 11 à 18 UTC au 11 à 20 UTC
Vent 3 kt de direction variable
Visibilité 10 km ou plus
Quelques nuages à une hauteur de 2500 ft

TAF: EGBJ 111701Z 1118/1120 VRB03KT 9999 FEW025

Observations et prévisions météorologiques de plus de 4000 aéroports (messages METAR et TAF).

Les stations disponibles sont représentées par des disques jaunes et rouges sur la carte.

Passer la souris dessus pour voir le nom de la station.

Cliquer dessus pour voir les observations et prévisions météorologiques.

Pour changer de carte: cliquez sur les boutons verts avec une croix noire pour zoomer, sur le bouton vert avec un tiret pour effectuer un zoom arrière, ou sur les flèches vertes pour les cartes adjacentes.


METAR-TAF: